createdAt,value
2019-05-06T00:01:24.253Z,1.90
2019-05-06T00:03:54.171Z,1.90
2019-05-06T00:06:23.696Z,1.90
2019-05-06T00:08:54.497Z,1.80
2019-05-06T00:11:23.870Z,1.90
2019-05-06T00:13:54.361Z,1.90
2019-05-06T00:16:23.798Z,1.90
2019-05-06T00:18:54.025Z,1.90
2019-05-06T00:21:24.455Z,1.70
2019-05-06T00:23:54.656Z,1.80
2019-05-06T00:26:41.245Z,1.80
2019-05-06T00:29:13.873Z,1.80
2019-05-06T00:31:43.901Z,1.70
2019-05-06T00:34:13.850Z,1.70
2019-05-06T00:36:43.706Z,1.60
2019-05-06T00:39:17.779Z,1.60
2019-05-06T00:41:47.999Z,1.60
2019-05-06T00:44:16.572Z,1.50
2019-05-06T00:46:45.164Z,1.60
2019-05-06T00:49:14.356Z,1.60
2019-05-06T00:51:43.967Z,1.70
2019-05-06T00:54:17.241Z,1.50
2019-05-06T00:56:45.902Z,1.40
2019-05-06T00:59:14.506Z,1.40
2019-05-06T01:01:43.523Z,1.40
2019-05-06T01:04:13.866Z,1.40
2019-05-06T01:06:44.037Z,1.40
2019-05-06T01:09:15.066Z,1.40
2019-05-06T01:11:45.185Z,1.40
2019-05-06T01:14:15.397Z,1.30
2019-05-06T01:16:44.082Z,1.20
2019-05-06T01:19:14.129Z,1.20
2019-05-06T01:21:44.546Z,1.20
2019-05-06T01:24:14.711Z,1.20
2019-05-06T01:26:44.407Z,1.10
2019-05-06T01:29:14.592Z,1.20
2019-05-06T01:31:45.950Z,1.10
2019-05-06T01:34:13.814Z,1.10
2019-05-06T01:36:43.705Z,1.00
2019-05-06T01:39:29.123Z,1.00
2019-05-06T01:42:04.290Z,1.00
2019-05-06T01:44:33.884Z,1.00
2019-05-06T01:47:03.800Z,1.00
2019-05-06T01:49:33.992Z,1.00
2019-05-06T01:52:04.148Z,0.90
2019-05-06T01:54:34.401Z,0.90
2019-05-06T01:57:04.385Z,0.80
2019-05-06T01:59:34.071Z,0.90
2019-05-06T02:02:04.348Z,1.00
2019-05-06T02:04:33.729Z,0.90
2019-05-06T02:07:03.778Z,0.90
2019-05-06T02:09:34.310Z,1.00
2019-05-06T02:12:04.565Z,1.00
2019-05-06T02:14:34.099Z,1.10
2019-05-06T02:17:03.751Z,1.10
2019-05-06T02:19:34.765Z,1.10
2019-05-06T02:22:13.773Z,1.10
2019-05-06T02:24:53.651Z,1.00
2019-05-06T02:27:24.264Z,1.00
2019-05-06T02:29:54.429Z,1.10
2019-05-06T02:32:27.030Z,1.10
2019-05-06T02:35:14.864Z,1.10
2019-05-06T02:37:46.444Z,1.10
2019-05-06T02:40:24.169Z,1.10
2019-05-06T02:42:54.441Z,1.20
2019-05-06T02:45:23.952Z,1.10
2019-05-06T02:47:59.431Z,1.20
2019-05-06T02:50:47.621Z,1.30
2019-05-06T02:53:18.001Z,1.40
2019-05-06T02:55:46.606Z,1.40
2019-05-06T02:58:15.242Z,1.40
2019-05-06T03:00:43.818Z,1.40
2019-05-06T03:03:13.973Z,1.40
2019-05-06T03:05:43.981Z,1.50
2019-05-06T03:08:13.695Z,1.70
2019-05-06T03:10:44.153Z,1.70
2019-05-06T03:13:14.152Z,1.80
2019-05-06T03:15:43.658Z,1.90
2019-05-06T03:18:14.887Z,1.80
2019-05-06T03:20:46.867Z,1.80
2019-05-06T03:23:17.353Z,1.80
2019-05-06T03:25:45.980Z,1.90
2019-05-06T03:28:14.584Z,2.00
2019-05-06T03:30:45.859Z,2.10
2019-05-06T03:33:37.834Z,2.10
2019-05-06T03:35:57.688Z,2.20
2019-05-06T03:38:14.185Z,2.30
2019-05-06T03:40:45.778Z,2.30
2019-05-06T03:43:15.656Z,2.30
2019-05-06T03:45:56.846Z,2.40
2019-05-06T03:48:33.446Z,2.40
2019-05-06T03:51:04.139Z,2.50
2019-05-06T03:53:33.664Z,2.50
2019-05-06T03:56:03.412Z,2.60
2019-05-06T03:58:35.360Z,2.70
2019-05-06T04:01:04.087Z,2.80
2019-05-06T04:03:43.916Z,2.80
2019-05-06T04:06:04.811Z,2.90
2019-05-06T04:08:34.484Z,2.90
2019-05-06T04:11:03.836Z,3.00
2019-05-06T04:13:33.333Z,3.10
2019-05-06T04:16:04.073Z,3.10
2019-05-06T04:18:34.582Z,3.20
2019-05-06T04:21:09.129Z,3.20
2019-05-06T04:23:39.601Z,3.30
2019-05-06T04:26:19.337Z,3.40
2019-05-06T04:28:48.039Z,3.50
2019-05-06T04:31:16.783Z,3.50
2019-05-06T04:34:04.275Z,3.60
2019-05-06T04:36:15.969Z,3.70
2019-05-06T04:38:45.070Z,3.70
2019-05-06T04:41:14.216Z,3.70
2019-05-06T04:43:43.846Z,3.90
2019-05-06T04:46:16.647Z,3.80
2019-05-06T04:48:43.748Z,4.00
2019-05-06T04:51:13.620Z,3.90
2019-05-06T04:53:44.041Z,4.00
2019-05-06T04:56:14.499Z,4.10
2019-05-06T04:58:43.507Z,4.20
2019-05-06T05:01:15.738Z,4.40
2019-05-06T05:03:42.903Z,4.60
2019-05-06T05:06:13.621Z,4.70
2019-05-06T05:08:42.721Z,4.80
2019-05-06T05:11:16.211Z,4.90
2019-05-06T05:13:46.542Z,5.00
2019-05-06T05:16:23.138Z,5.10
2019-05-06T05:18:53.407Z,5.20
2019-05-06T05:21:22.855Z,5.30
2019-05-06T05:23:52.376Z,5.50
2019-05-06T05:26:22.538Z,5.60
2019-05-06T05:28:53.221Z,5.80
2019-05-06T05:31:23.012Z,5.90
2019-05-06T05:33:52.581Z,6.00
2019-05-06T05:36:23.156Z,6.10
2019-05-06T05:38:52.256Z,6.10
2019-05-06T05:41:23.204Z,6.30
2019-05-06T05:43:55.900Z,6.30
2019-05-06T05:46:24.754Z,6.40
2019-05-06T05:48:57.726Z,6.50
2019-05-06T05:51:26.382Z,6.70
2019-05-06T05:53:55.215Z,6.80
2019-05-06T05:56:24.148Z,6.90
2019-05-06T05:58:53.692Z,7.00
2019-05-06T06:01:23.719Z,7.10
2019-05-06T06:03:52.748Z,7.30
2019-05-06T06:06:22.163Z,7.40
2019-05-06T06:08:52.349Z,7.60
2019-05-06T06:11:23.212Z,7.70
2019-05-06T06:13:52.392Z,7.90
2019-05-06T06:16:39.088Z,7.90
2019-05-06T06:19:09.443Z,8.00
2019-05-06T06:21:39.754Z,8.10
2019-05-06T06:24:10.156Z,8.10
2019-05-06T06:26:38.846Z,8.20
2019-05-06T06:29:07.557Z,8.50
2019-05-06T06:31:42.678Z,9.40
2019-05-06T06:34:22.271Z,11.60
2019-05-06T06:36:58.971Z,12.20
2019-05-06T06:39:32.677Z,13.80
2019-05-06T06:42:02.883Z,12.70
2019-05-06T06:44:33.278Z,11.70
2019-05-06T06:47:02.387Z,12.40
2019-05-06T06:49:32.819Z,14.40
2019-05-06T06:52:02.703Z,15.40
2019-05-06T06:54:32.433Z,14.60
2019-05-06T06:57:19.264Z,14.10
2019-05-06T06:59:49.640Z,14.70
2019-05-06T07:02:36.858Z,16.40
2019-05-06T07:05:24.777Z,16.40
2019-05-06T07:07:47.842Z,15.50
2019-05-06T07:10:34.499Z,15.60
2019-05-06T07:13:03.269Z,17.00
2019-05-06T07:15:33.597Z,17.60
2019-05-06T07:18:02.600Z,16.50
2019-05-06T07:20:42.967Z,15.60
2019-05-06T07:23:24.670Z,14.60
2019-05-06T07:25:54.451Z,16.80
2019-05-06T07:28:26.010Z,16.30
2019-05-06T07:30:55.265Z,16.70
2019-05-06T07:33:23.990Z,16.20
2019-05-06T07:35:53.200Z,17.40
2019-05-06T07:38:23.024Z,18.00
2019-05-06T07:40:53.836Z,17.10
2019-05-06T07:43:42.041Z,18.30
2019-05-06T07:46:12.691Z,17.90
2019-05-06T07:48:42.877Z,16.70
2019-05-06T07:51:12.406Z,16.30
2019-05-06T07:53:42.660Z,18.80
2019-05-06T07:56:12.620Z,18.60
2019-05-06T07:58:43.371Z,17.90
2019-05-06T08:01:13.607Z,18.50
2019-05-06T08:03:42.886Z,17.50
2019-05-06T08:06:13.259Z,16.40
2019-05-06T08:08:43.335Z,15.40
2019-05-06T08:11:12.546Z,15.60
2019-05-06T08:13:43.359Z,14.50
2019-05-06T08:16:13.188Z,16.40
2019-05-06T08:18:42.695Z,16.00
2019-05-06T08:21:18.967Z,17.30
2019-05-06T08:23:54.062Z,15.70
2019-05-06T08:26:22.715Z,15.80
2019-05-06T08:28:52.619Z,15.10
2019-05-06T08:31:22.716Z,15.00
2019-05-06T08:33:52.422Z,15.90
2019-05-06T08:36:22.996Z,18.60
2019-05-06T08:38:56.147Z,18.90
2019-05-06T08:41:25.745Z,18.70
2019-05-06T08:43:54.510Z,19.90
2019-05-06T08:46:23.659Z,21.20
2019-05-06T08:48:52.762Z,20.70
2019-05-06T08:51:25.760Z,20.50
2019-05-06T08:53:55.179Z,20.60
2019-05-06T08:56:23.855Z,19.80
2019-05-06T08:58:52.965Z,19.30
2019-05-06T09:01:29.498Z,18.10
2019-05-06T09:04:08.861Z,17.90
2019-05-06T09:06:33.057Z,18.90
2019-05-06T09:08:59.337Z,18.00
2019-05-06T09:11:29.032Z,16.50
2019-05-06T09:13:57.652Z,16.30
2019-05-06T09:16:26.414Z,16.30
2019-05-06T09:18:55.091Z,18.70
2019-05-06T09:21:23.750Z,17.70
2019-05-06T09:23:53.121Z,17.80
2019-05-06T09:26:23.703Z,17.70
2019-05-06T09:28:56.897Z,16.50
2019-05-06T09:31:27.115Z,16.30
2019-05-06T09:33:57.418Z,17.70
2019-05-06T09:36:39.838Z,18.00
2019-05-06T09:38:56.502Z,16.80
2019-05-06T09:41:25.263Z,16.50
2019-05-06T09:43:53.884Z,16.30
2019-05-06T09:46:23.114Z,16.90
2019-05-06T09:49:09.709Z,16.50
2019-05-06T09:51:38.330Z,16.70
2019-05-06T09:54:12.879Z,18.90
2019-05-06T09:56:43.491Z,20.00
2019-05-06T09:59:12.915Z,20.30
2019-05-06T10:01:43.763Z,19.00
2019-05-06T10:04:13.095Z,18.10
2019-05-06T10:06:55.661Z,17.70
2019-05-06T10:09:15.786Z,17.20
2019-05-06T10:11:43.180Z,16.00
2019-05-06T10:14:12.843Z,16.00
2019-05-06T10:16:43.042Z,18.10
2019-05-06T10:19:13.217Z,17.60
2019-05-06T10:21:42.703Z,16.70
2019-05-06T10:24:11.698Z,17.40
2019-05-06T10:26:43.228Z,17.90
2019-05-06T10:29:22.553Z,17.50
2019-05-06T10:31:55.335Z,17.60
2019-05-06T10:34:23.949Z,16.70
2019-05-06T10:37:19.538Z,17.40
2019-05-06T10:40:00.006Z,18.90
2019-05-06T10:42:34.613Z,18.40
2019-05-06T10:45:32.173Z,18.30
2019-05-06T10:48:02.340Z,17.80
2019-05-06T10:50:32.392Z,16.40
2019-05-06T10:53:23.214Z,16.10
2019-05-06T10:55:53.599Z,17.30
2019-05-06T10:58:22.947Z,15.80
2019-05-06T11:00:56.152Z,15.50
2019-05-06T11:03:27.592Z,15.20
2019-05-06T11:05:56.394Z,14.70
2019-05-06T11:08:24.998Z,14.30
2019-05-06T11:10:53.812Z,14.40
2019-05-06T11:13:24.401Z,13.80
2019-05-06T11:15:55.553Z,13.50
2019-05-06T11:18:23.701Z,14.10
2019-05-06T11:20:53.017Z,15.30
2019-05-06T11:23:22.690Z,15.20
2019-05-06T11:25:52.551Z,14.30
2019-05-06T11:28:42.638Z,13.60
2019-05-06T11:31:28.490Z,13.60
2019-05-06T11:34:07.633Z,13.50
2019-05-06T11:36:47.012Z,13.30
2019-05-06T11:39:15.702Z,13.20
2019-05-06T11:41:59.673Z,13.10
2019-05-06T11:44:14.486Z,13.10
2019-05-06T11:46:43.223Z,13.10
2019-05-06T11:49:12.510Z,13.60
2019-05-06T11:51:43.534Z,13.70
2019-05-06T11:54:17.541Z,13.80
2019-05-06T11:56:50.933Z,14.20
2019-05-06T11:59:13.281Z,14.30
2019-05-06T12:01:43.583Z,14.10
2019-05-06T12:04:13.863Z,13.90
2019-05-06T12:06:42.545Z,14.30
2019-05-06T12:09:16.454Z,14.80
2019-05-06T12:11:43.176Z,14.50
2019-05-06T12:14:12.498Z,14.00
2019-05-06T12:16:41.687Z,14.40
2019-05-06T12:19:12.877Z,14.80
2019-05-06T12:21:42.941Z,14.70
2019-05-06T12:24:12.245Z,14.30
2019-05-06T12:26:42.883Z,14.20
2019-05-06T12:29:12.672Z,14.50
2019-05-06T12:31:42.151Z,14.30
2019-05-06T12:34:12.421Z,14.30
2019-05-06T12:36:42.733Z,14.40
2019-05-06T12:39:18.481Z,14.30
2019-05-06T12:41:47.837Z,14.60
2019-05-06T12:44:16.795Z,14.30
2019-05-06T12:46:47.063Z,14.10
2019-05-06T12:49:15.684Z,13.80
2019-05-06T12:51:44.250Z,14.00
2019-05-06T12:54:12.995Z,14.00
2019-05-06T12:56:42.537Z,13.80
2019-05-06T12:59:12.728Z,14.00
2019-05-06T13:01:45.562Z,14.10
2019-05-06T13:04:13.598Z,13.80
2019-05-06T13:06:46.107Z,13.60
2019-05-06T13:09:12.941Z,13.70
2019-05-06T13:11:43.161Z,13.50
2019-05-06T13:14:12.713Z,13.60
2019-05-06T13:16:42.500Z,13.90
2019-05-06T13:19:12.190Z,13.90
2019-05-06T13:21:42.269Z,13.90
2019-05-06T13:24:12.142Z,13.80
2019-05-06T13:26:43.119Z,13.90
2019-05-06T13:29:13.274Z,14.00
2019-05-06T13:31:43.468Z,14.20
2019-05-06T13:34:14.297Z,14.10
2019-05-06T13:36:43.346Z,13.90
2019-05-06T13:39:14.899Z,14.10
2019-05-06T13:41:42.571Z,13.60
2019-05-06T13:44:13.364Z,13.90
2019-05-06T13:46:43.789Z,14.10
2019-05-06T13:49:19.873Z,14.40
2019-05-06T13:51:55.867Z,14.20
2019-05-06T13:54:24.672Z,14.10
2019-05-06T13:56:53.262Z,14.00
2019-05-06T13:59:21.960Z,14.10
2019-05-06T14:02:07.150Z,14.30
2019-05-06T14:04:34.791Z,14.40
2019-05-06T14:07:06.981Z,14.50
2019-05-06T14:09:39.961Z,14.10
2019-05-06T14:12:04.267Z,14.10
2019-05-06T14:14:32.860Z,13.90
2019-05-06T14:17:01.631Z,14.10
2019-05-06T14:19:30.197Z,14.00
2019-05-06T14:21:58.797Z,14.30
2019-05-06T14:24:27.685Z,14.10
2019-05-06T14:27:03.713Z,13.90
2019-05-06T14:29:34.021Z,14.00
2019-05-06T14:32:03.116Z,14.10
2019-05-06T14:34:32.496Z,13.60
2019-05-06T14:37:01.307Z,13.40
2019-05-06T14:39:48.952Z,13.20
2019-05-06T14:42:04.194Z,13.20
2019-05-06T14:44:32.801Z,13.20
2019-05-06T14:47:09.186Z,13.50
2019-05-06T14:49:37.809Z,13.80
2019-05-06T14:52:06.533Z,14.10
2019-05-06T14:54:36.842Z,14.00
2019-05-06T14:57:12.020Z,13.80
2019-05-06T14:59:42.202Z,13.40
2019-05-06T15:02:10.544Z,13.40
2019-05-06T15:04:39.281Z,13.40
2019-05-06T15:07:07.946Z,13.40
2019-05-06T15:09:52.787Z,13.20
2019-05-06T15:12:06.928Z,13.40
2019-05-06T15:14:35.680Z,13.20
2019-05-06T15:17:04.395Z,13.10
2019-05-06T15:19:32.999Z,13.10
2019-05-06T15:22:02.239Z,13.00
2019-05-06T15:24:30.994Z,13.00
2019-05-06T15:26:59.550Z,13.00
2019-05-06T15:29:28.150Z,13.00
2019-05-06T15:31:58.526Z,12.90
2019-05-06T15:34:28.783Z,12.90
2019-05-06T15:36:59.291Z,12.80
2019-05-06T15:39:27.862Z,12.80
2019-05-06T15:41:56.577Z,12.70
2019-05-06T15:44:25.223Z,12.70
2019-05-06T15:46:53.817Z,12.70
2019-05-06T15:49:22.478Z,12.80
2019-05-06T15:51:52.312Z,12.80
2019-05-06T15:54:22.708Z,12.80
2019-05-06T15:56:53.255Z,12.70
2019-05-06T15:59:22.973Z,12.60
2019-05-06T16:01:53.135Z,12.60
2019-05-06T16:04:22.878Z,12.50
2019-05-06T16:06:52.893Z,12.40
2019-05-06T16:09:23.417Z,12.30
2019-05-06T16:11:53.504Z,12.30
2019-05-06T16:14:23.022Z,12.30
2019-05-06T16:16:52.785Z,12.30
2019-05-06T16:19:22.887Z,12.20
2019-05-06T16:21:52.430Z,12.20
2019-05-06T16:24:22.724Z,12.10
2019-05-06T16:26:52.709Z,12.10
2019-05-06T16:29:23.064Z,12.10
2019-05-06T16:31:51.908Z,12.20
2019-05-06T16:34:22.626Z,12.20
2019-05-06T16:36:50.758Z,12.20
2019-05-06T16:39:19.497Z,12.30
2019-05-06T16:41:48.050Z,12.20
2019-05-06T16:44:16.702Z,12.20
2019-05-06T16:46:45.396Z,12.20
2019-05-06T16:49:14.283Z,12.10
2019-05-06T16:51:44.186Z,12.10
2019-05-06T16:54:13.079Z,12.10
2019-05-06T16:56:46.342Z,12.10
2019-05-06T16:59:14.973Z,12.10
2019-05-06T17:01:45.355Z,12.10
2019-05-06T17:04:27.667Z,12.10
2019-05-06T17:06:56.347Z,12.10
2019-05-06T17:09:27.661Z,12.10
2019-05-06T17:11:55.262Z,12.10
2019-05-06T17:14:23.938Z,12.00
2019-05-06T17:16:52.809Z,12.00
2019-05-06T17:19:23.054Z,11.90
2019-05-06T17:21:52.411Z,11.90
2019-05-06T17:24:22.011Z,11.80
2019-05-06T17:26:53.934Z,11.80
2019-05-06T17:29:22.791Z,11.70
2019-05-06T17:32:02.523Z,11.70
2019-05-06T17:34:33.048Z,11.70
2019-05-06T17:37:09.131Z,11.70
2019-05-06T17:39:37.827Z,11.60
2019-05-06T17:42:06.462Z,11.60
2019-05-06T17:44:35.121Z,11.60
2019-05-06T17:47:20.392Z,11.50
2019-05-06T17:49:49.106Z,11.50
2019-05-06T17:52:19.386Z,11.50
2019-05-06T17:54:48.025Z,11.40
2019-05-06T17:57:16.601Z,11.40
2019-05-06T17:59:45.295Z,11.40
2019-05-06T18:02:15.585Z,11.30
2019-05-06T18:04:44.258Z,11.30
2019-05-06T18:07:12.981Z,11.20
2019-05-06T18:09:42.586Z,11.20
2019-05-06T18:12:12.094Z,11.10
2019-05-06T18:14:43.263Z,11.10
2019-05-06T18:17:12.514Z,11.00
2019-05-06T18:19:41.429Z,11.00
2019-05-06T18:22:09.998Z,10.90
2019-05-06T18:24:38.698Z,10.90
2019-05-06T18:27:07.318Z,10.80
2019-05-06T18:29:35.942Z,10.70
2019-05-06T18:32:04.670Z,10.70
2019-05-06T18:34:33.440Z,10.70
2019-05-06T18:37:03.153Z,10.60
2019-05-06T18:39:33.750Z,10.50
2019-05-06T18:42:15.516Z,10.30
2019-05-06T18:44:33.445Z,10.20
2019-05-06T18:47:02.843Z,10.00
2019-05-06T18:49:33.631Z,10.00
2019-05-06T18:52:02.203Z,9.80
2019-05-06T18:54:33.177Z,9.70
2019-05-06T18:57:04.330Z,9.90
2019-05-06T18:59:33.009Z,9.90
2019-05-06T19:02:02.284Z,9.90
2019-05-06T19:04:33.482Z,9.80
2019-05-06T19:07:12.322Z,9.60
2019-05-06T19:09:34.105Z,9.50
2019-05-06T19:12:03.539Z,9.40
2019-05-06T19:14:33.198Z,9.30
2019-05-06T19:17:02.771Z,9.20
2019-05-06T19:19:34.258Z,9.10
2019-05-06T19:22:02.916Z,9.00
2019-05-06T19:24:33.604Z,8.90
2019-05-06T19:27:02.192Z,8.90
2019-05-06T19:29:33.099Z,8.90
2019-05-06T19:32:02.997Z,8.80
2019-05-06T19:34:34.540Z,8.80
2019-05-06T19:37:02.414Z,8.80
2019-05-06T19:39:32.923Z,8.80
2019-05-06T19:42:02.840Z,8.70
2019-05-06T19:44:31.909Z,8.70
2019-05-06T19:47:02.512Z,8.60
2019-05-06T19:49:32.615Z,8.60
2019-05-06T19:52:03.151Z,8.50
2019-05-06T19:54:33.061Z,8.50
2019-05-06T19:57:02.559Z,8.50
2019-05-06T19:59:33.109Z,8.40
2019-05-06T20:02:01.681Z,8.30
2019-05-06T20:04:30.595Z,8.30
2019-05-06T20:07:04.101Z,8.20
2019-05-06T20:09:43.596Z,8.20
2019-05-06T20:12:16.873Z,8.10
2019-05-06T20:14:48.599Z,8.10
2019-05-06T20:17:17.322Z,8.10
2019-05-06T20:19:46.333Z,8.10
2019-05-06T20:22:15.053Z,8.10
2019-05-06T20:24:43.738Z,8.10
2019-05-06T20:27:13.284Z,8.00
2019-05-06T20:29:42.824Z,8.00
2019-05-06T20:32:12.192Z,7.90
2019-05-06T20:34:42.846Z,7.90
2019-05-06T20:37:12.904Z,7.90
2019-05-06T20:39:43.251Z,7.80
2019-05-06T20:42:12.748Z,7.80
2019-05-06T20:44:43.413Z,7.80
2019-05-06T20:47:13.041Z,7.70
2019-05-06T20:49:43.178Z,7.80
2019-05-06T20:52:12.358Z,7.70
2019-05-06T20:54:42.634Z,8.00
2019-05-06T20:57:13.869Z,8.00
2019-05-06T20:59:42.481Z,8.00
2019-05-06T21:02:12.405Z,8.00
2019-05-06T21:04:43.203Z,8.00
2019-05-06T21:07:12.365Z,8.00
2019-05-06T21:09:43.200Z,8.00
2019-05-06T21:12:11.518Z,8.10
2019-05-06T21:14:42.103Z,8.20
2019-05-06T21:17:12.340Z,8.30
2019-05-06T21:19:40.894Z,8.30
2019-05-06T21:22:09.586Z,8.30
2019-05-06T21:24:38.240Z,8.30
2019-05-06T21:27:06.956Z,8.30
2019-05-06T21:29:35.648Z,8.40
2019-05-06T21:32:04.299Z,8.50
2019-05-06T21:34:32.964Z,8.50
2019-05-06T21:37:02.905Z,8.60
2019-05-06T21:39:32.779Z,8.50
2019-05-06T21:42:01.575Z,8.60
2019-05-06T21:44:32.249Z,8.50
2019-05-06T21:47:02.693Z,8.60
2019-05-06T21:49:32.638Z,8.60
2019-05-06T21:52:02.125Z,8.50
2019-05-06T21:54:32.755Z,8.50
2019-05-06T21:57:02.936Z,8.50
2019-05-06T21:59:31.831Z,8.50
2019-05-06T22:02:00.673Z,8.60
2019-05-06T22:04:29.331Z,8.50
2019-05-06T22:06:58.039Z,8.60
2019-05-06T22:09:26.573Z,8.60
2019-05-06T22:11:55.192Z,8.60
2019-05-06T22:14:23.749Z,8.50
2019-05-06T22:16:52.583Z,8.50
2019-05-06T22:19:21.485Z,8.50
2019-05-06T22:22:04.117Z,8.40
2019-05-06T22:24:34.508Z,8.40
2019-05-06T22:27:03.115Z,8.40
2019-05-06T22:29:33.044Z,8.30
2019-05-06T22:32:02.827Z,8.30
2019-05-06T22:34:32.966Z,8.30
2019-05-06T22:37:03.332Z,8.20
2019-05-06T22:39:34.156Z,8.20
2019-05-06T22:42:02.571Z,8.20
2019-05-06T22:44:32.482Z,8.10
2019-05-06T22:47:02.718Z,8.10
2019-05-06T22:49:32.123Z,8.00
2019-05-06T22:52:02.864Z,8.00
2019-05-06T22:54:32.029Z,8.00
2019-05-06T22:57:02.346Z,8.00
2019-05-06T22:59:32.994Z,7.90
2019-05-06T23:02:06.344Z,7.90
2019-05-06T23:04:36.587Z,7.90
2019-05-06T23:07:05.173Z,7.80
2019-05-06T23:09:33.852Z,7.80
2019-05-06T23:12:04.775Z,7.70
2019-05-06T23:14:36.914Z,7.70
2019-05-06T23:17:03.338Z,7.70
2019-05-06T23:19:31.987Z,7.70
2019-05-06T23:22:04.031Z,7.70
2019-05-06T23:24:32.195Z,7.70
2019-05-06T23:27:02.385Z,7.70
2019-05-06T23:29:31.263Z,7.70
2019-05-06T23:31:59.928Z,7.70
2019-05-06T23:34:28.666Z,7.70
2019-05-06T23:37:03.303Z,7.60
2019-05-06T23:40:09.885Z,7.60
2019-05-06T23:43:15.087Z,7.60
2019-05-06T23:46:22.654Z,7.60
2019-05-06T23:49:27.083Z,7.60
2019-05-06T23:52:32.700Z,7.60
2019-05-06T23:55:38.086Z,7.60
2019-05-06T23:58:05.575Z,7.60
